Flight Track Log - Related Links

Times and Time Zones

All times are in EDT time to prevent confusion due to time zone crossing. See the EJA846 flight status page for this flight to view local times or setup timezone preferences in your user account.

Time Position Orientation Groundspeed Altitude Reporting Facility
EDT Latitude Longitude Course Direction KTS MPH feet Rate Location/Type
Wed 01:58:22 PM 41.9417 -72.6828 60° Northeast 124 143 1,000  Level Boston Center
Wed 01:58:52 PM 41.9583 -72.6439 60° Northeast 188 216 3,400 3,947 Climbing Boston Center
Wed 01:59:38 PM 41.9958 -72.6217 24° Northeast 250 288 6,000 3,792 Climbing Boston Center
Wed 02:00:38 PM 42.0292 -72.6972 301° West 170 196 10,100 4,050 Climbing Boston Center
Wed 02:01:38 PM 42.0017 -72.8033 251° West 174 200 14,100 3,600 Climbing Boston Center
Wed 02:02:38 PM 41.9700 -72.9119 249° West 261 300 17,300 2,750 Climbing Boston Center
Wed 02:03:38 PM 41.9361 -73.0317 249° West 303 349 19,600 2,350 Climbing Boston Center
Wed 02:04:38 PM 41.8792 -73.1400 235° Southwest 334 384 22,000 2,200 Climbing Boston Center
Wed 02:05:38 PM 41.7911 -73.2225 215° Southwest 361 415 24,000 1,000 Climbing Boston Center
Wed 02:06:38 PM 41.6947 -73.3131 215° Southwest 395 455 24,000  Level Boston Center
Wed 02:07:38 PM 41.5919 -73.4033 213° Southwest 429 494 24,000  Level Boston Center
Wed 02:08:38 PM 41.5056 -73.4822 214° Southwest 436 502 24,000  Level Boston Center
Wed 02:09:38 PM 41.3858 -73.5911 214° Southwest 436 502 24,000  Level Boston Center
Wed 02:10:38 PM 41.2869 -73.6833 215° Southwest 441 507 24,000  Level Boston Center
Wed 02:11:16 PM 41.2350 -73.7261 212° Southwest 440 506 24,000  Level New York Center
Wed 02:12:17 PM 41.1386 -73.8264 218° Southwest 440 506 24,000  Level New York Center
Wed 02:13:17 PM 41.0625 -73.9522 231° Southwest 434 499 24,000  Level New York Center
Wed 02:14:18 PM 40.9903 -74.0753 232° Southwest 434 499 24,000  Level New York Center
Wed 02:15:16 PM 40.9097 -74.1978 229° Southwest 440 506 24,000  Level New York Center
Wed 02:16:17 PM 40.8375 -74.3231 233° Southwest 440 506 24,000  Level New York Center
Wed 02:17:17 PM 40.7628 -74.4450 231° Southwest 434 499 24,000  Level New York Center
Wed 02:18:19 PM 40.6903 -74.5672 232° Southwest 434 499 24,000  Level New York Center
Wed 02:19:16 PM 40.6086 -74.7047 232° Southwest 434 499 24,000  Level New York Center
Wed 02:20:16 PM 40.5297 -74.8175 227° Southwest 429 494 24,000 -200 Level New York Center
Wed 02:21:16 PM 40.4508 -74.9303 227° Southwest 429 494 23,600 -1,240 Descending New York Center
Wed 02:22:17 PM 40.3719 -75.0400 227° Southwest 424 488 21,500 -2,132 Descending New York Center
Wed 02:23:17 PM 40.2947 -75.1522 228° Southwest 424 488 19,300 -1,736 Descending New York Center
Wed 02:24:18 PM 40.2203 -75.2508 225° Southwest 412 474 18,000 -645 Descending New York Center
Wed 02:25:18 PM 40.1453 -75.3572 227° Southwest 402 463 18,000  Level New York Center
Wed 02:26:16 PM 40.0792 -75.4506 227° Southwest 397 457 18,000 -50 Level New York Center
Wed 02:27:18 PM 39.9975 -75.5617 226° Southwest 397 457 17,900 -836 Descending New York Center
Wed 02:28:18 PM 39.9333 -75.6519 227° Southwest 392 451 16,300 -1,576 Descending New York Center
Wed 02:29:16 PM 39.8681 -75.7664 233° Southwest 374 430 14,800 -1,160 Descending New York Center
Wed 02:30:17 PM 39.8158 -75.8681 236° Southwest 362 417 14,000 -817 Descending New York Center
Wed 02:32:27 PM 39.7000 -76.1000 237° Southwest 343 395 12,200 -695 Descending Potomac TRACON
Wed 02:33:27 PM 39.6333 -76.2000 229° Southwest 325 374 11,800 -1,250 Descending Potomac TRACON
Wed 02:34:27 PM 39.6000 -76.2833 243° Southwest 294 338 9,700 -2,150 Descending Potomac TRACON
Wed 02:35:27 PM 39.5500 -76.3667 232° Southwest 294 338 7,500 -1,350 Descending Potomac TRACON
Wed 02:36:27 PM 39.5167 -76.4667 247° West 290 334 7,000 -250 Descending Potomac TRACON
Wed 02:37:27 PM 39.5000 -76.5667 258° West 288 331 7,000  Level Potomac TRACON
Wed 02:38:27 PM 39.5000 -76.6667 270° West 289 333 7,000 -400 Level Potomac TRACON
Wed 02:39:27 PM 39.4500 -76.7500 232° Southwest 290 334 6,200 -1,400 Descending Potomac TRACON
Wed 02:40:27 PM 39.3833 -76.8000 210° Southwest 269 310 4,200 -1,895 Descending Potomac TRACON
Wed 02:41:21 PM 39.3333 -76.8000 180° South 259 298 2,600 -1,100 Descending Potomac TRACON
Wed 02:42:27 PM 39.2667 -76.7333 142° Southeast 225 259 2,000 -744 Descending Potomac TRACON
Wed 02:43:22 PM 39.2333 -76.7000 142° Southeast 195 224 1,100 -982 Descending Potomac TRACON

Login

Don't have an account? Register now (free) for customized features, flight alerts, and more!